createdAt,value
2023-10-08T00:01:07.157Z,0.50
2023-10-08T00:03:37.417Z,0.50
2023-10-08T00:06:13.793Z,0.60
2023-10-08T00:08:41.870Z,0.40
2023-10-08T00:11:11.412Z,0.83
2023-10-08T00:13:42.190Z,0.60
2023-10-08T00:16:11.466Z,0.70
2023-10-08T00:18:42.952Z,0.70
2023-10-08T00:21:21.367Z,0.50
2023-10-08T00:23:53.651Z,0.43
2023-10-08T00:26:28.624Z,0.60
2023-10-08T00:29:00.659Z,0.80
2023-10-08T00:31:33.189Z,1.13
2023-10-08T00:34:05.904Z,0.70
2023-10-08T00:36:35.206Z,0.50
2023-10-08T00:39:09.816Z,0.87
2023-10-08T00:41:39.421Z,0.50
2023-10-08T00:44:10.713Z,0.57
2023-10-08T00:46:40.932Z,0.50
2023-10-08T00:49:20.702Z,0.50
2023-10-08T00:51:48.831Z,0.73
2023-10-08T00:54:18.823Z,0.63
2023-10-08T00:56:58.318Z,0.60
2023-10-08T00:59:26.869Z,0.63
2023-10-08T01:02:00.512Z,0.60
2023-10-08T01:04:34.946Z,0.90
2023-10-08T01:07:13.741Z,0.50
2023-10-08T01:09:43.815Z,0.67
2023-10-08T01:12:16.877Z,0.50
2023-10-08T01:14:44.353Z,0.50
2023-10-08T01:17:15.836Z,1.93
2023-10-08T01:19:47.597Z,0.50
2023-10-08T01:22:19.575Z,0.80
2023-10-08T01:24:49.696Z,0.97
2023-10-08T01:27:22.608Z,0.40
2023-10-08T01:29:51.500Z,1.00
2023-10-08T01:32:20.267Z,0.50
2023-10-08T01:34:49.549Z,0.70
2023-10-08T01:37:20.123Z,0.83
2023-10-08T01:39:49.318Z,0.40
2023-10-08T01:42:19.296Z,0.60
2023-10-08T01:44:49.689Z,0.77
2023-10-08T01:47:19.543Z,0.57
2023-10-08T01:49:48.247Z,0.50
2023-10-08T01:52:21.614Z,0.50
2023-10-08T01:54:51.021Z,0.83
2023-10-08T01:57:19.087Z,0.50
2023-10-08T01:59:47.017Z,0.50
2023-10-08T02:02:16.392Z,0.70
2023-10-08T02:04:44.804Z,0.67
2023-10-08T02:07:14.066Z,0.43
2023-10-08T02:09:42.407Z,0.70
2023-10-08T02:12:15.218Z,0.50
2023-10-08T02:14:43.685Z,0.60
2023-10-08T02:17:11.741Z,0.70
2023-10-08T02:19:41.278Z,0.93
2023-10-08T02:22:10.899Z,0.70
2023-10-08T02:24:39.149Z,0.60
2023-10-08T02:27:08.045Z,0.50
2023-10-08T02:29:37.394Z,0.30
2023-10-08T02:32:06.032Z,0.57
2023-10-08T02:34:33.991Z,0.63
2023-10-08T02:37:01.969Z,0.70
2023-10-08T02:39:31.435Z,0.40
2023-10-08T02:42:00.856Z,0.50
2023-10-08T02:44:29.344Z,0.53
2023-10-08T02:46:59.008Z,0.63
2023-10-08T02:49:31.304Z,0.53
2023-10-08T02:52:00.020Z,0.50
2023-10-08T02:54:33.922Z,0.40
2023-10-08T02:57:05.082Z,0.50
2023-10-08T02:59:41.143Z,0.40
2023-10-08T03:02:16.911Z,0.40
2023-10-08T03:04:46.638Z,0.40
2023-10-08T03:07:22.426Z,1.60
2023-10-08T03:10:04.359Z,0.50
2023-10-08T03:12:33.477Z,0.50
2023-10-08T03:15:14.168Z,0.57
2023-10-08T03:17:51.830Z,0.40
2023-10-08T03:20:38.938Z,0.40
2023-10-08T03:23:13.324Z,0.60
2023-10-08T03:25:43.445Z,0.50
2023-10-08T03:28:14.029Z,0.40
2023-10-08T03:30:51.001Z,0.60
2023-10-08T03:33:24.740Z,0.63
2023-10-08T03:35:55.954Z,0.40
2023-10-08T03:38:31.027Z,0.50
2023-10-08T03:41:05.044Z,0.50
2023-10-08T03:43:44.687Z,0.60
2023-10-08T03:46:16.839Z,0.50
2023-10-08T03:48:46.601Z,0.50
2023-10-08T03:51:20.743Z,0.87
2023-10-08T03:53:59.809Z,0.50
2023-10-08T03:56:30.763Z,0.50
2023-10-08T03:59:01.586Z,0.50
2023-10-08T04:01:33.390Z,0.37
2023-10-08T04:04:02.901Z,0.60
2023-10-08T04:06:32.587Z,0.90
2023-10-08T04:09:17.434Z,0.50
2023-10-08T04:11:53.953Z,0.40
2023-10-08T04:14:25.223Z,0.40
2023-10-08T04:16:54.115Z,0.60
2023-10-08T04:19:27.815Z,0.50
2023-10-08T04:21:56.352Z,0.40
2023-10-08T04:24:29.846Z,0.83
2023-10-08T04:26:59.670Z,0.50
2023-10-08T04:29:33.019Z,0.50
2023-10-08T04:32:08.862Z,0.43
2023-10-08T04:34:38.542Z,0.60
2023-10-08T04:37:13.606Z,0.50
2023-10-08T04:39:48.318Z,0.60
2023-10-08T04:42:19.309Z,0.50
2023-10-08T04:44:47.282Z,0.50
2023-10-08T04:47:32.648Z,0.40
2023-10-08T04:50:05.540Z,0.40
2023-10-08T04:52:35.439Z,0.50
2023-10-08T04:55:14.097Z,0.40
2023-10-08T04:57:43.835Z,0.40
2023-10-08T05:00:16.126Z,1.33
2023-10-08T05:02:50.693Z,0.40
2023-10-08T05:05:39.305Z,0.50
2023-10-08T05:08:27.510Z,0.53
2023-10-08T05:11:25.780Z,0.40
2023-10-08T05:14:06.813Z,0.40
2023-10-08T05:17:01.282Z,0.40
2023-10-08T05:19:51.912Z,0.50
2023-10-08T05:22:43.931Z,0.50
2023-10-08T05:25:25.721Z,0.40
2023-10-08T05:28:10.219Z,0.70
2023-10-08T05:30:42.710Z,0.33
2023-10-08T05:33:25.121Z,0.40
2023-10-08T05:36:03.830Z,0.50
2023-10-08T05:39:00.591Z,0.43
2023-10-08T05:41:40.226Z,0.50
2023-10-08T05:44:39.285Z,1.13
2023-10-08T05:47:29.781Z,0.70
2023-10-08T05:50:13.389Z,0.60
2023-10-08T05:52:51.952Z,0.50
2023-10-08T05:55:26.695Z,0.50
2023-10-08T05:58:14.479Z,0.50
2023-10-08T06:01:06.998Z,0.40
2023-10-08T06:03:38.077Z,0.50
2023-10-08T06:06:26.988Z,0.50
2023-10-08T06:09:07.376Z,0.40
2023-10-08T06:11:45.716Z,0.50
2023-10-08T06:14:29.215Z,0.70
2023-10-08T06:17:14.298Z,0.50
2023-10-08T06:19:42.303Z,0.50
2023-10-08T06:22:09.133Z,0.40
2023-10-08T06:24:39.897Z,0.50
2023-10-08T06:27:10.536Z,0.40
2023-10-08T06:29:45.652Z,0.40
2023-10-08T06:32:15.463Z,0.40
2023-10-08T06:34:43.418Z,1.03
2023-10-08T06:37:11.478Z,0.50
2023-10-08T06:39:49.232Z,0.50
2023-10-08T06:42:18.899Z,0.50
2023-10-08T06:44:49.465Z,0.57
2023-10-08T06:47:17.922Z,0.60
2023-10-08T06:49:45.872Z,0.67
2023-10-08T06:52:14.991Z,0.50
2023-10-08T06:54:42.871Z,0.80
2023-10-08T06:57:14.821Z,0.80
2023-10-08T06:59:44.592Z,0.70
2023-10-08T07:02:12.818Z,0.47
2023-10-08T07:04:42.576Z,0.50
2023-10-08T07:07:10.810Z,0.50
2023-10-08T07:09:38.672Z,0.40
2023-10-08T07:12:14.874Z,0.43
2023-10-08T07:14:44.647Z,0.40
2023-10-08T07:17:20.798Z,0.40
2023-10-08T07:19:51.802Z,0.40
2023-10-08T07:22:24.721Z,0.97
2023-10-08T07:24:53.345Z,0.70
2023-10-08T07:27:25.636Z,0.50
2023-10-08T07:29:57.512Z,0.83
2023-10-08T07:32:27.104Z,0.60
2023-10-08T07:35:03.243Z,0.53
2023-10-08T07:37:33.754Z,0.50
2023-10-08T07:40:04.037Z,0.47
2023-10-08T07:42:33.617Z,0.60
2023-10-08T07:45:05.831Z,0.60
2023-10-08T07:47:33.857Z,0.40
2023-10-08T07:50:02.414Z,0.50
2023-10-08T07:52:30.412Z,0.77
2023-10-08T07:54:58.243Z,0.40
2023-10-08T07:57:28.083Z,0.40
2023-10-08T07:59:59.655Z,0.50
2023-10-08T08:02:29.095Z,0.43
2023-10-08T08:04:57.622Z,1.30
2023-10-08T08:07:25.733Z,0.63
2023-10-08T08:09:59.320Z,0.50
2023-10-08T08:12:29.285Z,0.40
2023-10-08T08:14:57.367Z,0.43
2023-10-08T08:17:25.834Z,0.60
2023-10-08T08:19:55.167Z,0.40
2023-10-08T08:22:24.949Z,0.53
2023-10-08T08:24:58.866Z,0.60
2023-10-08T08:27:32.669Z,0.70
2023-10-08T08:30:11.130Z,0.57
2023-10-08T08:32:40.193Z,0.50
2023-10-08T08:35:11.158Z,0.50
2023-10-08T08:37:40.960Z,0.50
2023-10-08T08:40:10.840Z,0.50
2023-10-08T08:42:39.280Z,0.40
2023-10-08T08:45:12.700Z,0.60
2023-10-08T08:47:42.209Z,0.50
2023-10-08T08:50:12.290Z,0.67
2023-10-08T08:52:41.670Z,0.67
2023-10-08T08:55:15.511Z,0.50
2023-10-08T08:57:44.769Z,0.50
2023-10-08T09:00:15.208Z,0.80
2023-10-08T09:02:45.809Z,0.53
2023-10-08T09:05:25.868Z,0.67
2023-10-08T09:07:56.598Z,1.20
2023-10-08T09:10:28.206Z,0.70
2023-10-08T09:12:59.091Z,0.50
2023-10-08T09:15:28.015Z,0.53
2023-10-08T09:17:57.142Z,0.70
2023-10-08T09:20:27.729Z,0.40
2023-10-08T09:23:13.464Z,0.40
2023-10-08T09:25:41.996Z,0.50
2023-10-08T09:28:10.306Z,0.70
2023-10-08T09:30:39.346Z,0.50
2023-10-08T09:33:10.612Z,0.80
2023-10-08T09:35:40.774Z,0.40
2023-10-08T09:38:10.788Z,0.50
2023-10-08T09:40:41.788Z,0.50
2023-10-08T09:43:12.054Z,0.80
2023-10-08T09:45:42.467Z,0.67
2023-10-08T09:48:13.905Z,0.60
2023-10-08T09:50:45.640Z,0.60
2023-10-08T09:53:17.752Z,0.60
2023-10-08T09:55:49.733Z,0.50
2023-10-08T09:58:19.036Z,0.40
2023-10-08T10:00:49.851Z,0.83
2023-10-08T10:03:20.110Z,0.80
2023-10-08T10:05:51.450Z,0.63
2023-10-08T10:08:21.208Z,0.63
2023-10-08T10:10:50.256Z,0.67
2023-10-08T10:13:19.608Z,0.80
2023-10-08T10:15:49.269Z,0.50
2023-10-08T10:18:30.446Z,0.50
2023-10-08T10:21:02.548Z,0.40
2023-10-08T10:23:38.294Z,0.40
2023-10-08T10:26:10.725Z,0.40
2023-10-08T10:28:39.020Z,0.50
2023-10-08T10:31:08.870Z,0.33
2023-10-08T10:33:41.121Z,0.50
2023-10-08T10:36:14.599Z,0.67
2023-10-08T10:38:43.402Z,0.50
2023-10-08T10:41:11.398Z,0.43
2023-10-08T10:43:41.726Z,0.97
2023-10-08T10:46:30.644Z,0.90
2023-10-08T10:49:07.682Z,0.50
2023-10-08T10:51:36.535Z,0.50
2023-10-08T10:54:11.113Z,0.47
2023-10-08T10:56:44.073Z,0.60
2023-10-08T10:59:19.700Z,0.40
2023-10-08T11:01:49.531Z,0.53
2023-10-08T11:04:20.103Z,0.50
2023-10-08T11:06:55.258Z,0.57
2023-10-08T11:09:37.074Z,0.40
2023-10-08T11:12:11.956Z,0.70
2023-10-08T11:14:43.385Z,0.40
2023-10-08T11:17:16.021Z,1.23
2023-10-08T11:19:46.931Z,0.50
2023-10-08T11:22:19.889Z,0.50
2023-10-08T11:24:49.548Z,0.57
2023-10-08T11:27:29.597Z,0.60
2023-10-08T11:29:59.119Z,0.97
2023-10-08T11:32:28.548Z,0.47
2023-10-08T11:35:00.609Z,0.50
2023-10-08T11:37:31.014Z,0.50
2023-10-08T11:40:00.474Z,0.60
2023-10-08T11:42:41.290Z,0.47
2023-10-08T11:45:27.630Z,0.50
2023-10-08T11:47:57.866Z,0.50
2023-10-08T11:50:31.784Z,0.63
2023-10-08T11:53:04.431Z,0.50
2023-10-08T11:55:36.942Z,0.90
2023-10-08T11:58:10.975Z,0.60
2023-10-08T12:00:45.258Z,0.70
2023-10-08T12:03:14.279Z,0.60
2023-10-08T12:05:48.308Z,0.80
2023-10-08T12:08:19.017Z,0.60
2023-10-08T12:10:49.004Z,0.50
2023-10-08T12:13:19.900Z,0.70
2023-10-08T12:15:48.513Z,0.47
2023-10-08T12:18:25.772Z,0.50
2023-10-08T12:20:55.172Z,0.33
2023-10-08T12:23:26.928Z,0.50
2023-10-08T12:25:57.011Z,0.40
2023-10-08T12:28:25.556Z,0.63
2023-10-08T12:30:54.679Z,0.40
2023-10-08T12:33:25.260Z,0.40
2023-10-08T12:35:54.715Z,0.50
2023-10-08T12:38:24.354Z,0.50
2023-10-08T12:40:54.752Z,0.50
2023-10-08T12:43:23.298Z,0.40
2023-10-08T12:45:54.184Z,0.40
2023-10-08T12:48:23.409Z,0.60
2023-10-08T12:50:57.638Z,0.43
2023-10-08T12:53:34.689Z,0.60
2023-10-08T12:56:06.690Z,0.47
2023-10-08T12:58:42.529Z,0.50
2023-10-08T13:01:11.611Z,0.50
2023-10-08T13:03:43.126Z,0.50
2023-10-08T13:06:16.032Z,0.60
2023-10-08T13:08:45.604Z,0.50
2023-10-08T13:11:13.569Z,0.50
2023-10-08T13:13:41.478Z,0.40
2023-10-08T13:16:09.580Z,0.70
2023-10-08T13:18:38.696Z,0.50
2023-10-08T13:21:07.749Z,0.40
2023-10-08T13:23:36.609Z,0.83
2023-10-08T13:26:08.133Z,0.53
2023-10-08T13:28:37.066Z,0.50
2023-10-08T13:31:11.037Z,0.47
2023-10-08T13:33:41.019Z,0.40
2023-10-08T13:36:18.492Z,0.40
2023-10-08T13:38:48.380Z,0.47
2023-10-08T13:41:19.141Z,0.60
2023-10-08T13:43:48.336Z,0.40
2023-10-08T13:46:18.693Z,0.47
2023-10-08T13:48:49.788Z,0.40
2023-10-08T13:51:24.586Z,0.50
2023-10-08T13:53:54.570Z,0.43
2023-10-08T13:56:27.751Z,2.57
2023-10-08T13:59:05.225Z,10.00
2023-10-08T14:01:34.861Z,10.07
2023-10-08T14:04:07.267Z,1.77
2023-10-08T14:06:36.556Z,1.00
2023-10-08T14:09:08.848Z,1.10
2023-10-08T14:11:38.199Z,0.50
2023-10-08T14:14:12.260Z,0.67
2023-10-08T14:16:43.110Z,0.60
2023-10-08T14:19:13.625Z,0.60
2023-10-08T14:21:50.422Z,0.50
2023-10-08T14:24:18.728Z,0.50
2023-10-08T14:26:53.990Z,0.50
2023-10-08T14:29:21.956Z,0.70
2023-10-08T14:31:50.751Z,0.50
2023-10-08T14:34:42.197Z,0.50
2023-10-08T14:37:28.466Z,0.60
2023-10-08T14:40:14.377Z,0.60
2023-10-08T14:42:59.311Z,0.60
2023-10-08T14:45:32.370Z,0.70
2023-10-08T14:48:01.315Z,1.00
2023-10-08T14:50:32.724Z,0.70
2023-10-08T14:53:02.142Z,1.03
2023-10-08T14:55:31.033Z,0.87
2023-10-08T14:58:07.348Z,1.37
2023-10-08T15:00:37.559Z,0.80
2023-10-08T15:03:05.812Z,1.10
2023-10-08T15:05:34.025Z,1.00
2023-10-08T15:08:04.456Z,0.90
2023-10-08T15:10:32.354Z,0.80
2023-10-08T15:13:02.256Z,0.57
2023-10-08T15:15:35.547Z,0.60
2023-10-08T15:18:04.206Z,0.80
2023-10-08T15:20:33.420Z,0.80
2023-10-08T15:23:02.127Z,0.53
2023-10-08T15:25:30.221Z,0.60
2023-10-08T15:27:58.349Z,0.50
2023-10-08T15:30:27.661Z,0.80
2023-10-08T15:32:56.244Z,1.47
2023-10-08T15:35:25.608Z,1.67
2023-10-08T15:37:54.894Z,1.40
2023-10-08T15:40:23.857Z,1.80
2023-10-08T15:42:53.763Z,0.80
2023-10-08T15:45:22.540Z,0.80
2023-10-08T15:47:52.264Z,1.30
2023-10-08T15:50:21.572Z,0.90
2023-10-08T15:52:50.497Z,1.03
2023-10-08T15:55:20.195Z,0.60
2023-10-08T15:57:48.311Z,0.50
2023-10-08T16:00:16.686Z,0.50
2023-10-08T16:02:46.621Z,0.50
2023-10-08T16:05:17.407Z,0.60
2023-10-08T16:07:45.933Z,0.70
2023-10-08T16:10:14.044Z,0.70
2023-10-08T16:12:42.027Z,0.50
2023-10-08T16:15:10.972Z,0.50
2023-10-08T16:17:40.690Z,0.47
2023-10-08T16:20:14.930Z,0.50
2023-10-08T16:22:46.625Z,0.63
2023-10-08T16:25:16.330Z,0.50
2023-10-08T16:27:49.314Z,0.73
2023-10-08T16:30:20.729Z,0.40
2023-10-08T16:32:49.415Z,0.60
2023-10-08T16:35:18.334Z,0.70
2023-10-08T16:37:47.802Z,0.47
2023-10-08T16:40:16.540Z,0.70
2023-10-08T16:42:44.673Z,0.60
2023-10-08T16:45:17.570Z,0.60
2023-10-08T16:47:45.901Z,0.50
2023-10-08T16:50:13.880Z,0.50
2023-10-08T16:52:41.858Z,0.50
2023-10-08T16:55:11.169Z,1.00
2023-10-08T16:57:39.125Z,0.70
2023-10-08T17:00:12.751Z,0.60
2023-10-08T17:02:42.072Z,0.40
2023-10-08T17:05:14.932Z,0.50
2023-10-08T17:07:42.933Z,0.60
2023-10-08T17:10:12.772Z,0.50
2023-10-08T17:12:40.945Z,1.00
2023-10-08T17:15:11.186Z,0.50
2023-10-08T17:17:39.381Z,0.50
2023-10-08T17:20:10.343Z,0.90
2023-10-08T17:22:38.746Z,0.70
2023-10-08T17:25:08.018Z,0.70
2023-10-08T17:27:37.975Z,0.77
2023-10-08T17:30:07.604Z,0.50
2023-10-08T17:32:36.438Z,0.50
2023-10-08T17:35:07.578Z,0.50
2023-10-08T17:37:38.150Z,0.47
2023-10-08T17:40:08.689Z,0.40
2023-10-08T17:42:38.015Z,0.50
2023-10-08T17:45:07.523Z,0.60
2023-10-08T17:47:35.560Z,0.40
2023-10-08T17:50:03.857Z,0.60
2023-10-08T17:52:31.916Z,0.40
2023-10-08T17:55:00.336Z,0.80
2023-10-08T17:57:30.851Z,0.40
2023-10-08T18:00:01.022Z,0.40
2023-10-08T18:02:32.221Z,0.50
2023-10-08T18:05:00.377Z,0.60
2023-10-08T18:07:28.276Z,0.83
2023-10-08T18:09:56.386Z,0.40
2023-10-08T18:12:24.549Z,0.50
2023-10-08T18:14:52.607Z,0.40
2023-10-08T18:17:23.232Z,0.40
2023-10-08T18:19:51.405Z,0.60
2023-10-08T18:22:20.075Z,0.80
2023-10-08T18:24:50.270Z,0.50
2023-10-08T18:27:18.325Z,0.50
2023-10-08T18:29:46.219Z,0.43
2023-10-08T18:32:14.158Z,0.40
2023-10-08T18:34:43.717Z,0.60
2023-10-08T18:37:11.608Z,0.60
2023-10-08T18:39:39.454Z,0.77
2023-10-08T18:42:09.123Z,0.90
2023-10-08T18:44:37.114Z,0.43
2023-10-08T18:47:06.564Z,0.70
2023-10-08T18:49:35.497Z,0.40
2023-10-08T18:52:06.244Z,0.50
2023-10-08T18:54:35.368Z,0.60
2023-10-08T18:57:06.950Z,0.70
2023-10-08T18:59:36.435Z,0.80
2023-10-08T19:02:04.874Z,0.60
2023-10-08T19:04:32.977Z,0.50
2023-10-08T19:07:03.371Z,0.50
2023-10-08T19:09:33.085Z,0.43
2023-10-08T19:12:02.036Z,0.43
2023-10-08T19:14:30.621Z,0.50
2023-10-08T19:16:58.508Z,0.60
2023-10-08T19:19:26.703Z,0.50
2023-10-08T19:21:55.048Z,0.50
2023-10-08T19:24:22.951Z,0.50
2023-10-08T19:26:56.292Z,0.60
2023-10-08T19:29:25.798Z,0.40
2023-10-08T19:31:54.509Z,0.50
2023-10-08T19:34:24.022Z,0.93
2023-10-08T19:36:52.194Z,0.40
2023-10-08T19:39:20.359Z,0.50
2023-10-08T19:41:48.338Z,0.40
2023-10-08T19:44:17.561Z,0.60
2023-10-08T19:46:48.545Z,0.47
2023-10-08T19:49:18.332Z,0.50
2023-10-08T19:51:46.702Z,0.50
2023-10-08T19:54:15.748Z,0.77
2023-10-08T19:56:43.699Z,0.60
2023-10-08T19:59:13.266Z,0.40
2023-10-08T20:01:42.849Z,0.43
2023-10-08T20:04:10.923Z,0.70
2023-10-08T20:06:38.938Z,0.80
2023-10-08T20:09:07.717Z,0.40
2023-10-08T20:11:36.946Z,0.70
2023-10-08T20:14:04.851Z,0.50
2023-10-08T20:16:33.170Z,0.50
2023-10-08T20:19:06.147Z,0.40
2023-10-08T20:21:34.659Z,0.50
2023-10-08T20:24:02.548Z,0.40
2023-10-08T20:26:31.096Z,0.50
2023-10-08T20:28:59.425Z,0.90
2023-10-08T20:31:29.850Z,0.60
2023-10-08T20:34:01.012Z,0.50
2023-10-08T20:36:30.351Z,0.60
2023-10-08T20:38:59.039Z,0.50
2023-10-08T20:41:28.576Z,0.70
2023-10-08T20:43:57.746Z,0.50
2023-10-08T20:46:26.759Z,0.67
2023-10-08T20:48:55.013Z,0.67
2023-10-08T20:51:25.011Z,0.60
2023-10-08T20:53:57.335Z,0.50
2023-10-08T20:56:26.149Z,0.40
2023-10-08T20:58:54.041Z,0.40
2023-10-08T21:01:22.394Z,0.50
2023-10-08T21:03:50.368Z,0.50
2023-10-08T21:06:21.978Z,0.97
2023-10-08T21:08:50.392Z,0.40
2023-10-08T21:11:20.032Z,0.50
2023-10-08T21:13:48.814Z,0.63
2023-10-08T21:16:16.417Z,0.50
2023-10-08T21:18:45.229Z,0.50
2023-10-08T21:21:14.015Z,0.50
2023-10-08T21:23:42.120Z,0.50
2023-10-08T21:26:10.005Z,0.50
2023-10-08T21:28:39.232Z,0.77
2023-10-08T21:31:10.573Z,0.50
2023-10-08T21:33:38.966Z,0.50
2023-10-08T21:36:07.240Z,0.40
2023-10-08T21:38:36.678Z,0.40
2023-10-08T21:41:04.830Z,0.53
2023-10-08T21:43:33.698Z,0.50
2023-10-08T21:46:02.921Z,0.70
2023-10-08T21:48:31.131Z,0.50
2023-10-08T21:50:59.106Z,0.40
2023-10-08T21:53:27.128Z,0.60
2023-10-08T21:55:55.129Z,0.50
2023-10-08T21:58:23.332Z,0.77
2023-10-08T22:01:00.705Z,0.40
2023-10-08T22:03:30.381Z,0.60
2023-10-08T22:05:58.373Z,0.40
2023-10-08T22:08:28.947Z,0.50
2023-10-08T22:10:57.585Z,0.40
2023-10-08T22:13:26.521Z,0.60
2023-10-08T22:15:56.697Z,0.40
2023-10-08T22:18:28.537Z,0.50
2023-10-08T22:21:07.131Z,0.70
2023-10-08T22:23:39.726Z,0.50
2023-10-08T22:26:09.846Z,0.50
2023-10-08T22:28:43.335Z,0.50
2023-10-08T22:31:15.698Z,0.60
2023-10-08T22:33:48.592Z,0.50
2023-10-08T22:36:29.822Z,0.60
2023-10-08T22:38:58.309Z,0.60
2023-10-08T22:41:36.731Z,0.70
2023-10-08T22:44:06.536Z,0.40
2023-10-08T22:46:42.874Z,0.50
2023-10-08T22:49:19.494Z,0.40
2023-10-08T22:51:51.021Z,0.60
2023-10-08T22:54:20.070Z,0.70
2023-10-08T22:56:48.245Z,0.60
2023-10-08T22:59:17.649Z,0.40
2023-10-08T23:01:48.721Z,0.53
2023-10-08T23:04:17.230Z,0.50
2023-10-08T23:06:47.705Z,0.60
2023-10-08T23:09:25.605Z,0.80
2023-10-08T23:11:55.767Z,0.40
2023-10-08T23:14:25.260Z,0.50
2023-10-08T23:16:53.113Z,0.70
2023-10-08T23:19:22.562Z,0.40
2023-10-08T23:21:52.835Z,0.70
2023-10-08T23:24:23.587Z,0.57
2023-10-08T23:26:51.552Z,0.87
2023-10-08T23:29:20.014Z,0.60
2023-10-08T23:31:49.901Z,0.40
2023-10-08T23:34:17.994Z,0.40
2023-10-08T23:36:45.942Z,0.40
2023-10-08T23:39:20.391Z,0.50
2023-10-08T23:41:52.548Z,0.40
2023-10-08T23:44:26.177Z,0.50
2023-10-08T23:47:05.635Z,0.40
2023-10-08T23:49:47.980Z,0.50
2023-10-08T23:52:23.312Z,0.50
2023-10-08T23:54:57.650Z,0.50
2023-10-08T23:57:40.768Z,0.50
